KBDE

Baudette International Airport

Baudette, Minnesota, USA
METAR KBDE 201653Z AUTO 33012G23KT 10SM BKN030 M01/M07 A3027 RMK AO2 SLP265 T10111072 $
Observed Flight Rules
Oct-20 @ 16:53 UTC (31 minutes ago) Marginal Visual Flight Rules
Wind Visibility Clouds
330° at 12 knots
 Gusting to 23 knots
10 miles
  • Broken at 3,000' AGL
Temperatures Readings
Current -1°C / 30°F
Dewpoint -7°C / 19°F
Humidity 64%
Altimeter 30.27" Hg
Pressure 1026.5 hPa
Elevation 329
METAR KBDE 201653Z AUTO 33012G23KT 10SM BKN030 M01/M07 A3027 RMK AO2 SLP265 T10111072 $
Observed Flight Rules
Oct-20 @ 16:53 UTC
(31 minutes ago)
MVFR
Wind Visibility
330° at 12 knots
 Gusting to 23 knots
10 miles
Clouds
  • Broken at 3,000' AGL
Temperature Dewpoint
-1°C / 30°F -7°C / 19°F
Humidity Altimeter Pressure
64% 30.27" Hg 1026.5 hPa